• Join FlightAware (Why Join?)
  • Login
  • US Flag 
01:50PM EDT


 

Airport Tracker/Info


-or-


 

Live Flight TrackerFlight Track Log ✈ DAL1205 ✈ 19-Apr-2013 ✈ KATL - KBNA

Flight Track Log - Related Links

Times and Time Zones

All times are in EDT time to prevent confusion due to time zone crossing. See the DAL1205 flight status page for this flight to view local times or setup timezone preferences in your user account.

Time Position Orientation Groundspeed Altitude Reporting Facility
EDT Latitude Longitude Course Direction KTS MPH feet Rate Location/Type
08:04PM 33.6500 -84.4667 342° North 177 204 2,800  Level Atlanta TRACON
08:05PM 33.6667 -84.5333 287° West 236 272 5,800 2,040 Climbing Atlanta TRACON
08:06PM 33.8756 -84.5667 North  Level FlightAware Approximate
08:07PM 33.9794 -84.6050 342° North  Level FlightAware Approximate
08:07PM 33.8492 -84.6292 336° Northwest 304 350 10,000  Level Atlanta Center
08:08PM 34.0828 -84.6463 342° North  Level FlightAware Approximate
08:08PM 33.9450 -84.6497 350° North 363 418 11,700  Level Atlanta Center
08:09PM 34.1861 -84.6878 342° North  Level FlightAware Approximate
08:09PM 34.0578 -84.6731 350° North 400 460 14,600  Level Atlanta Center
08:10PM 34.1722 -84.6992 349° North 417 480 17,100 2,100 Climbing Atlanta Center
08:11PM 34.2869 -84.7403 344° North 427 491 18,900 1,920 Climbing Atlanta Center
08:12PM 34.3886 -84.8167 328° Northwest 422 486 21,000 1,980 Climbing Atlanta Center
08:13PM 34.4989 -84.8958 329° Northwest 422 486 22,900 1,620 Climbing Atlanta Center
08:14PM 34.6067 -84.9775 328° Northwest 442 509 24,300 1,440 Climbing Atlanta Center
08:15PM 34.6958 -85.0519 326° Northwest 442 509 25,800 840 Climbing Atlanta Center
08:16PM 34.8058 -85.1342 328° Northwest 448 516 26,000 60 Climbing Atlanta Center
08:17PM 34.9156 -85.2192 328° Northwest 454 522 26,000 -540 Level Atlanta Center
08:19PM 35.1008 -85.3622 328° Northwest 446 513 24,500 -720 Descending Memphis Center
08:20PM 35.1897 -85.4458 322° Northwest 427 491 24,000 -300 Descending Memphis Center
08:21PM 35.2622 -85.5408 313° West 400 460 24,000 -600 Level Memphis Center
08:22PM 35.3367 -85.6333 315° West 392 451 22,800 -1,260 Descending Memphis Center
08:23PM 35.4047 -85.7236 313° West 378 435 21,500 -1,320 Descending Memphis Center
08:24PM 35.4767 -85.8114 315° West 373 429 20,200 -1,320 Descending Memphis Center
08:25PM 35.5425 -85.8969 313° West 362 417 18,900 -1,560 Descending Memphis Center
08:26PM 35.6061 -85.9831 312° West 355 409 17,100 -1,920 Descending Memphis Center
08:27PM 35.6692 -86.0639 314° West 333 383 15,100 -1,920 Descending Memphis Center
08:28PM 35.7261 -86.1403 313° West 315 362 13,300 -1,800 Descending Memphis Center
08:29PM 35.7872 -86.2242 312° West 302 348 11,500 -1,500 Descending Memphis Center
08:30PM 35.8375 -86.2933 312° West 291 335 10,300 -960 Descending Memphis Center
08:31PM 35.8856 -86.3550 314° West 270 311 9,600 -1,020 Descending Memphis Center
08:32PM 35.9311 -86.4142 314° West 250 288 8,300 -1,320 Descending Memphis Center
08:33PM 35.9728 -86.4739 311° West 244 281 7,000 -1,140 Descending Memphis Center
08:34PM 36.0183 -86.5333 313° West 239 275 6,100 -780 Descending Memphis Center
08:35PM 36.0594 -86.5800 317° Northwest 218 251 5,500 -600 Descending Memphis Center
08:36PM 36.1192 -86.5619 14° North 197 227 5,000 -900 Descending Memphis Center
08:37PM 36.1769 -86.5439 14° North 197 227 3,800 -1,200 Descending Memphis Center